sensor_id;sensor_type;location;lat;lon;timestamp;P1;durP1;ratioP1;P2;durP2;ratioP2
10651;SDS011;5374;42.742;23.266;2022-09-27T00:02:37;8.00;;;7.30;;
10651;SDS011;5374;42.742;23.266;2022-09-27T00:05:24;7.63;;;6.87;;
10651;SDS011;5374;42.742;23.266;2022-09-27T00:08:11;8.10;;;6.33;;
10651;SDS011;5374;42.742;23.266;2022-09-27T00:10:59;8.27;;;6.80;;
10651;SDS011;5374;42.742;23.266;2022-09-27T00:13:47;7.53;;;6.73;;
10651;SDS011;5374;42.742;23.266;2022-09-27T00:16:35;7.47;;;6.77;;
10651;SDS011;5374;42.742;23.266;2022-09-27T00:19:25;8.77;;;6.93;;
10651;SDS011;5374;42.742;23.266;2022-09-27T00:22:12;8.63;;;6.40;;
10651;SDS011;5374;42.742;23.266;2022-09-27T00:24:59;8.80;;;6.43;;
10651;SDS011;5374;42.742;23.266;2022-09-27T00:27:50;7.23;;;6.53;;
10651;SDS011;5374;42.742;23.266;2022-09-27T00:30:40;6.93;;;6.10;;
10651;SDS011;5374;42.742;23.266;2022-09-27T00:33:27;8.23;;;6.83;;
10651;SDS011;5374;42.742;23.266;2022-09-27T00:36:16;7.00;;;6.30;;
10651;SDS011;5374;42.742;23.266;2022-09-27T00:39:04;8.90;;;8.00;;
10651;SDS011;5374;42.742;23.266;2022-09-27T00:41:52;10.43;;;7.40;;
10651;SDS011;5374;42.742;23.266;2022-09-27T00:48:02;9.47;;;7.33;;
10651;SDS011;5374;42.742;23.266;2022-09-27T00:50:51;8.23;;;7.20;;
10651;SDS011;5374;42.742;23.266;2022-09-27T00:53:46;8.43;;;7.23;;
10651;SDS011;5374;42.742;23.266;2022-09-27T00:56:37;9.87;;;8.87;;
10651;SDS011;5374;42.742;23.266;2022-09-27T00:59:25;14.13;;;8.53;;
10651;SDS011;5374;42.742;23.266;2022-09-27T01:02:16;10.03;;;8.10;;
10651;SDS011;5374;42.742;23.266;2022-09-27T01:05:04;9.23;;;8.07;;
10651;SDS011;5374;42.742;23.266;2022-09-27T01:07:54;10.57;;;7.13;;
10651;SDS011;5374;42.742;23.266;2022-09-27T01:10:50;8.10;;;7.30;;
10651;SDS011;5374;42.742;23.266;2022-09-27T01:13:53;8.00;;;7.00;;
10651;SDS011;5374;42.742;23.266;2022-09-27T01:16:53;7.67;;;6.53;;
10651;SDS011;5374;42.742;23.266;2022-09-27T01:19:51;9.90;;;7.07;;
10651;SDS011;5374;42.742;23.266;2022-09-27T01:23:09;9.60;;;6.93;;
10651;SDS011;5374;42.742;23.266;2022-09-27T01:26:33;8.30;;;7.03;;
10651;SDS011;5374;42.742;23.266;2022-09-27T01:29:34;7.77;;;6.80;;
10651;SDS011;5374;42.742;23.266;2022-09-27T01:32:38;8.27;;;7.33;;
10651;SDS011;5374;42.742;23.266;2022-09-27T01:35:35;7.80;;;7.00;;
10651;SDS011;5374;42.742;23.266;2022-09-27T01:38:32;8.67;;;7.70;;
10651;SDS011;5374;42.742;23.266;2022-09-27T01:41:25;12.00;;;8.00;;
10651;SDS011;5374;42.742;23.266;2022-09-27T01:44:22;11.60;;;8.37;;
10651;SDS011;5374;42.742;23.266;2022-09-27T01:47:15;10.83;;;7.77;;
10651;SDS011;5374;42.742;23.266;2022-09-27T01:50:07;9.83;;;8.03;;
10651;SDS011;5374;42.742;23.266;2022-09-27T01:53:00;9.10;;;7.77;;
10651;SDS011;5374;42.742;23.266;2022-09-27T01:55:50;8.83;;;7.77;;
10651;SDS011;5374;42.742;23.266;2022-09-27T01:58:41;11.53;;;8.17;;
10651;SDS011;5374;42.742;23.266;2022-09-27T02:01:33;9.83;;;8.40;;
10651;SDS011;5374;42.742;23.266;2022-09-27T02:04:23;9.27;;;8.37;;
10651;SDS011;5374;42.742;23.266;2022-09-27T02:07:16;8.83;;;7.93;;
10651;SDS011;5374;42.742;23.266;2022-09-27T02:10:09;9.50;;;8.17;;
10651;SDS011;5374;42.742;23.266;2022-09-27T02:13:03;10.27;;;8.47;;
10651;SDS011;5374;42.742;23.266;2022-09-27T02:15:57;9.77;;;8.77;;
10651;SDS011;5374;42.742;23.266;2022-09-27T02:18:54;10.03;;;8.83;;
10651;SDS011;5374;42.742;23.266;2022-09-27T02:21:50;11.57;;;10.37;;
10651;SDS011;5374;42.742;23.266;2022-09-27T02:24:45;10.70;;;9.60;;
10651;SDS011;5374;42.742;23.266;2022-09-27T02:27:39;11.63;;;10.40;;
10651;SDS011;5374;42.742;23.266;2022-09-27T02:30:31;11.43;;;10.33;;
10651;SDS011;5374;42.742;23.266;2022-09-27T02:33:18;12.10;;;10.90;;
10651;SDS011;5374;42.742;23.266;2022-09-27T02:36:08;12.03;;;10.77;;
10651;SDS011;5374;42.742;23.266;2022-09-27T02:38:56;12.70;;;10.77;;
10651;SDS011;5374;42.742;23.266;2022-09-27T02:41:46;10.83;;;9.73;;
10651;SDS011;5374;42.742;23.266;2022-09-27T02:44:33;11.23;;;10.20;;
10651;SDS011;5374;42.742;23.266;2022-09-27T02:50:53;10.63;;;9.53;;
10651;SDS011;5374;42.742;23.266;2022-09-27T02:53:52;11.27;;;10.17;;
10651;SDS011;5374;42.742;23.266;2022-09-27T02:56:56;9.77;;;8.77;;
10651;SDS011;5374;42.742;23.266;2022-09-27T02:59:49;10.67;;;9.60;;
10651;SDS011;5374;42.742;23.266;2022-09-27T03:02:49;10.60;;;9.50;;
10651;SDS011;5374;42.742;23.266;2022-09-27T03:05:42;10.87;;;9.53;;
10651;SDS011;5374;42.742;23.266;2022-09-27T03:08:32;10.90;;;9.77;;
10651;SDS011;5374;42.742;23.266;2022-09-27T03:11:19;13.27;;;9.43;;
10651;SDS011;5374;42.742;23.266;2022-09-27T03:14:08;10.93;;;9.27;;
10651;SDS011;5374;42.742;23.266;2022-09-27T03:16:55;12.47;;;9.77;;
10651;SDS011;5374;42.742;23.266;2022-09-27T03:19:42;10.93;;;8.57;;
10651;SDS011;5374;42.742;23.266;2022-09-27T03:22:29;11.47;;;9.10;;
10651;SDS011;5374;42.742;23.266;2022-09-27T03:25:16;11.23;;;9.03;;
10651;SDS011;5374;42.742;23.266;2022-09-27T03:28:04;11.73;;;9.73;;
10651;SDS011;5374;42.742;23.266;2022-09-27T03:30:53;10.73;;;9.53;;
10651;SDS011;5374;42.742;23.266;2022-09-27T03:33:40;16.07;;;13.23;;
10651;SDS011;5374;42.742;23.266;2022-09-27T03:36:27;13.00;;;11.67;;
10651;SDS011;5374;42.742;23.266;2022-09-27T03:39:14;11.93;;;10.73;;
10651;SDS011;5374;42.742;23.266;2022-09-27T03:42:01;11.93;;;10.73;;
10651;SDS011;5374;42.742;23.266;2022-09-27T03:44:48;11.20;;;10.00;;
10651;SDS011;5374;42.742;23.266;2022-09-27T03:47:40;12.60;;;10.00;;
10651;SDS011;5374;42.742;23.266;2022-09-27T03:50:27;11.00;;;9.90;;
10651;SDS011;5374;42.742;23.266;2022-09-27T03:53:14;11.83;;;10.37;;
10651;SDS011;5374;42.742;23.266;2022-09-27T03:56:01;10.77;;;9.43;;
10651;SDS011;5374;42.742;23.266;2022-09-27T03:58:48;15.57;;;13.20;;
10651;SDS011;5374;42.742;23.266;2022-09-27T04:01:35;11.07;;;9.97;;
10651;SDS011;5374;42.742;23.266;2022-09-27T04:04:24;12.93;;;10.13;;
10651;SDS011;5374;42.742;23.266;2022-09-27T04:07:12;13.33;;;11.93;;
10651;SDS011;5374;42.742;23.266;2022-09-27T04:09:59;11.47;;;10.37;;
10651;SDS011;5374;42.742;23.266;2022-09-27T04:12:46;12.93;;;10.07;;
10651;SDS011;5374;42.742;23.266;2022-09-27T04:15:33;11.33;;;9.80;;
10651;SDS011;5374;42.742;23.266;2022-09-27T04:18:21;11.97;;;10.70;;
10651;SDS011;5374;42.742;23.266;2022-09-27T04:21:10;11.53;;;10.33;;
10651;SDS011;5374;42.742;23.266;2022-09-27T04:23:57;10.90;;;9.50;;
10651;SDS011;5374;42.742;23.266;2022-09-27T04:26:44;15.43;;;10.47;;
10651;SDS011;5374;42.742;23.266;2022-09-27T04:29:32;12.23;;;10.67;;
10651;SDS011;5374;42.742;23.266;2022-09-27T04:32:19;11.43;;;10.17;;
10651;SDS011;5374;42.742;23.266;2022-09-27T04:35:06;11.23;;;10.13;;
10651;SDS011;5374;42.742;23.266;2022-09-27T04:38:12;12.50;;;9.60;;
10651;SDS011;5374;42.742;23.266;2022-09-27T04:41:00;13.13;;;9.97;;
10651;SDS011;5374;42.742;23.266;2022-09-27T04:43:47;11.77;;;10.57;;
10651;SDS011;5374;42.742;23.266;2022-09-27T04:46:35;11.70;;;10.50;;
10651;SDS011;5374;42.742;23.266;2022-09-27T04:49:22;11.80;;;10.57;;
10651;SDS011;5374;42.742;23.266;2022-09-27T04:52:10;14.33;;;10.70;;
10651;SDS011;5374;42.742;23.266;2022-09-27T04:55:01;14.70;;;10.87;;
10651;SDS011;5374;42.742;23.266;2022-09-27T04:57:49;12.20;;;10.90;;
10651;SDS011;5374;42.742;23.266;2022-09-27T05:00:36;12.63;;;10.07;;
10651;SDS011;5374;42.742;23.266;2022-09-27T05:03:24;12.40;;;8.97;;
10651;SDS011;5374;42.742;23.266;2022-09-27T05:06:11;11.23;;;10.03;;
10651;SDS011;5374;42.742;23.266;2022-09-27T05:08:58;11.33;;;10.17;;
10651;SDS011;5374;42.742;23.266;2022-09-27T05:11:46;10.43;;;9.33;;
10651;SDS011;5374;42.742;23.266;2022-09-27T05:14:34;11.20;;;10.03;;
10651;SDS011;5374;42.742;23.266;2022-09-27T05:17:21;11.57;;;10.40;;
10651;SDS011;5374;42.742;23.266;2022-09-27T05:20:08;11.37;;;10.17;;
10651;SDS011;5374;42.742;23.266;2022-09-27T05:22:55;13.33;;;10.67;;
10651;SDS011;5374;42.742;23.266;2022-09-27T05:25:43;12.57;;;11.27;;
10651;SDS011;5374;42.742;23.266;2022-09-27T05:28:31;12.80;;;9.87;;
10651;SDS011;5374;42.742;23.266;2022-09-27T05:31:19;13.47;;;10.50;;
10651;SDS011;5374;42.742;23.266;2022-09-27T05:34:06;17.70;;;11.13;;
10651;SDS011;5374;42.742;23.266;2022-09-27T05:36:55;13.67;;;10.13;;
10651;SDS011;5374;42.742;23.266;2022-09-27T05:39:42;17.10;;;9.50;;
10651;SDS011;5374;42.742;23.266;2022-09-27T05:42:29;16.63;;;10.23;;
10651;SDS011;5374;42.742;23.266;2022-09-27T05:45:18;15.83;;;10.80;;
10651;SDS011;5374;42.742;23.266;2022-09-27T05:48:06;19.00;;;10.23;;
10651;SDS011;5374;42.742;23.266;2022-09-27T05:50:53;11.83;;;9.90;;
10651;SDS011;5374;42.742;23.266;2022-09-27T05:53:40;14.90;;;9.83;;
10651;SDS011;5374;42.742;23.266;2022-09-27T05:56:28;11.23;;;9.80;;
10651;SDS011;5374;42.742;23.266;2022-09-27T05:59:15;11.03;;;9.93;;
10651;SDS011;5374;42.742;23.266;2022-09-27T06:02:03;11.13;;;9.93;;
10651;SDS011;5374;42.742;23.266;2022-09-27T06:04:50;12.03;;;10.77;;
10651;SDS011;5374;42.742;23.266;2022-09-27T06:07:39;10.83;;;9.57;;
10651;SDS011;5374;42.742;23.266;2022-09-27T06:10:26;11.03;;;10.00;;
10651;SDS011;5374;42.742;23.266;2022-09-27T06:13:15;11.70;;;10.03;;
10651;SDS011;5374;42.742;23.266;2022-09-27T06:16:02;12.17;;;10.83;;
10651;SDS011;5374;42.742;23.266;2022-09-27T06:18:51;11.47;;;10.27;;
10651;SDS011;5374;42.742;23.266;2022-09-27T06:21:39;11.53;;;10.10;;
10651;SDS011;5374;42.742;23.266;2022-09-27T06:24:26;12.43;;;10.67;;
10651;SDS011;5374;42.742;23.266;2022-09-27T06:27:18;11.63;;;10.43;;
10651;SDS011;5374;42.742;23.266;2022-09-27T06:30:10;12.23;;;10.87;;
10651;SDS011;5374;42.742;23.266;2022-09-27T06:32:58;13.67;;;10.93;;
10651;SDS011;5374;42.742;23.266;2022-09-27T06:35:48;14.80;;;11.63;;
10651;SDS011;5374;42.742;23.266;2022-09-27T06:38:35;13.13;;;11.77;;
10651;SDS011;5374;42.742;23.266;2022-09-27T06:41:23;13.10;;;11.70;;
10651;SDS011;5374;42.742;23.266;2022-09-27T06:44:10;15.43;;;13.83;;
10651;SDS011;5374;42.742;23.266;2022-09-27T06:46:57;13.97;;;12.57;;
10651;SDS011;5374;42.742;23.266;2022-09-27T06:49:44;13.40;;;12.20;;
10651;SDS011;5374;42.742;23.266;2022-09-27T06:52:33;14.13;;;12.50;;
10651;SDS011;5374;42.742;23.266;2022-09-27T06:55:21;14.57;;;13.17;;
10651;SDS011;5374;42.742;23.266;2022-09-27T06:58:09;14.23;;;12.83;;
10651;SDS011;5374;42.742;23.266;2022-09-27T07:01:14;14.57;;;13.07;;
10651;SDS011;5374;42.742;23.266;2022-09-27T07:04:02;15.33;;;13.83;;
10651;SDS011;5374;42.742;23.266;2022-09-27T07:06:50;15.47;;;14.07;;
10651;SDS011;5374;42.742;23.266;2022-09-27T07:09:39;15.47;;;13.40;;
10651;SDS011;5374;42.742;23.266;2022-09-27T07:12:28;15.87;;;14.07;;
10651;SDS011;5374;42.742;23.266;2022-09-27T07:15:16;14.90;;;13.40;;
10651;SDS011;5374;42.742;23.266;2022-09-27T07:18:05;15.30;;;13.70;;
10651;SDS011;5374;42.742;23.266;2022-09-27T07:20:53;14.43;;;12.93;;
10651;SDS011;5374;42.742;23.266;2022-09-27T07:23:41;15.53;;;13.87;;
10651;SDS011;5374;42.742;23.266;2022-09-27T07:26:29;18.00;;;12.50;;
10651;SDS011;5374;42.742;23.266;2022-09-27T07:29:16;15.03;;;12.20;;
10651;SDS011;5374;42.742;23.266;2022-09-27T07:32:04;23.67;;;12.57;;
10651;SDS011;5374;42.742;23.266;2022-09-27T07:34:51;18.73;;;12.10;;
10651;SDS011;5374;42.742;23.266;2022-09-27T07:37:38;23.17;;;12.93;;
10651;SDS011;5374;42.742;23.266;2022-09-27T07:40:25;21.70;;;12.53;;
10651;SDS011;5374;42.742;23.266;2022-09-27T07:43:14;14.93;;;11.40;;
10651;SDS011;5374;42.742;23.266;2022-09-27T07:46:02;20.20;;;12.83;;
10651;SDS011;5374;42.742;23.266;2022-09-27T07:48:49;14.50;;;12.03;;
10651;SDS011;5374;42.742;23.266;2022-09-27T07:51:37;13.53;;;12.13;;
10651;SDS011;5374;42.742;23.266;2022-09-27T07:54:24;13.73;;;11.97;;
10651;SDS011;5374;42.742;23.266;2022-09-27T07:57:11;14.47;;;12.97;;
10651;SDS011;5374;42.742;23.266;2022-09-27T08:00:00;12.83;;;11.53;;
10651;SDS011;5374;42.742;23.266;2022-09-27T08:02:48;14.67;;;12.30;;
10651;SDS011;5374;42.742;23.266;2022-09-27T08:05:35;13.93;;;12.63;;
10651;SDS011;5374;42.742;23.266;2022-09-27T08:08:23;14.70;;;13.30;;
10651;SDS011;5374;42.742;23.266;2022-09-27T08:11:10;12.93;;;11.50;;
10651;SDS011;5374;42.742;23.266;2022-09-27T08:13:59;13.33;;;12.00;;
10651;SDS011;5374;42.742;23.266;2022-09-27T08:16:48;16.47;;;14.87;;
10651;SDS011;5374;42.742;23.266;2022-09-27T08:19:35;14.77;;;13.30;;
10651;SDS011;5374;42.742;23.266;2022-09-27T08:22:22;18.27;;;16.20;;
10651;SDS011;5374;42.742;23.266;2022-09-27T08:25:10;20.70;;;17.07;;
10651;SDS011;5374;42.742;23.266;2022-09-27T08:27:59;15.17;;;13.20;;
10651;SDS011;5374;42.742;23.266;2022-09-27T08:30:48;13.50;;;12.17;;
10651;SDS011;5374;42.742;23.266;2022-09-27T08:33:37;14.07;;;12.43;;
10651;SDS011;5374;42.742;23.266;2022-09-27T08:36:25;14.30;;;12.03;;
10651;SDS011;5374;42.742;23.266;2022-09-27T08:39:12;13.03;;;11.70;;
10651;SDS011;5374;42.742;23.266;2022-09-27T08:42:01;13.57;;;11.77;;
10651;SDS011;5374;42.742;23.266;2022-09-27T08:45:00;14.03;;;11.37;;
10651;SDS011;5374;42.742;23.266;2022-09-27T08:47:53;14.60;;;12.40;;
10651;SDS011;5374;42.742;23.266;2022-09-27T08:50:45;12.40;;;11.20;;
10651;SDS011;5374;42.742;23.266;2022-09-27T08:53:35;14.77;;;10.50;;
10651;SDS011;5374;42.742;23.266;2022-09-27T08:56:25;12.93;;;11.50;;
10651;SDS011;5374;42.742;23.266;2022-09-27T08:59:13;12.93;;;11.50;;
10651;SDS011;5374;42.742;23.266;2022-09-27T09:02:08;14.07;;;12.30;;
10651;SDS011;5374;42.742;23.266;2022-09-27T09:05:05;13.17;;;11.27;;
10651;SDS011;5374;42.742;23.266;2022-09-27T09:08:01;12.10;;;10.83;;
10651;SDS011;5374;42.742;23.266;2022-09-27T09:11:07;12.73;;;9.73;;
10651;SDS011;5374;42.742;23.266;2022-09-27T09:20:56;10.80;;;9.77;;
10651;SDS011;5374;42.742;23.266;2022-09-27T09:23:58;12.53;;;10.80;;
10651;SDS011;5374;42.742;23.266;2022-09-27T09:27:09;10.93;;;9.93;;
10651;SDS011;5374;42.742;23.266;2022-09-27T09:30:11;10.70;;;8.67;;
10651;SDS011;5374;42.742;23.266;2022-09-27T09:33:13;10.13;;;9.23;;
10651;SDS011;5374;42.742;23.266;2022-09-27T09:36:08;10.53;;;9.20;;
10651;SDS011;5374;42.742;23.266;2022-09-27T09:39:04;31.73;;;14.10;;
10651;SDS011;5374;42.742;23.266;2022-09-27T09:42:00;24.30;;;13.83;;
10651;SDS011;5374;42.742;23.266;2022-09-27T09:44:57;24.10;;;12.93;;
10651;SDS011;5374;42.742;23.266;2022-09-27T09:47:50;16.73;;;9.93;;
10651;SDS011;5374;42.742;23.266;2022-09-27T09:50:44;16.23;;;9.97;;
10651;SDS011;5374;42.742;23.266;2022-09-27T09:53:35;18.93;;;9.90;;
10651;SDS011;5374;42.742;23.266;2022-09-27T09:56:30;16.93;;;9.63;;
10651;SDS011;5374;42.742;23.266;2022-09-27T09:59:22;18.23;;;9.97;;
10651;SDS011;5374;42.742;23.266;2022-09-27T10:02:16;11.83;;;10.60;;
10651;SDS011;5374;42.742;23.266;2022-09-27T10:05:12;10.33;;;9.00;;
10651;SDS011;5374;42.742;23.266;2022-09-27T10:08:02;10.57;;;9.47;;
10651;SDS011;5374;42.742;23.266;2022-09-27T10:10:53;15.80;;;9.10;;
10651;SDS011;5374;42.742;23.266;2022-09-27T10:13:41;21.67;;;9.73;;
10651;SDS011;5374;42.742;23.266;2022-09-27T10:16:28;20.40;;;11.13;;
10651;SDS011;5374;42.742;23.266;2022-09-27T10:19:17;19.33;;;10.50;;
10651;SDS011;5374;42.742;23.266;2022-09-27T10:22:13;12.60;;;8.33;;
10651;SDS011;5374;42.742;23.266;2022-09-27T10:25:05;12.30;;;8.97;;
10651;SDS011;5374;42.742;23.266;2022-09-27T10:27:54;13.13;;;8.50;;
10651;SDS011;5374;42.742;23.266;2022-09-27T10:30:43;9.77;;;7.33;;
10651;SDS011;5374;42.742;23.266;2022-09-27T10:33:50;9.63;;;7.57;;
10651;SDS011;5374;42.742;23.266;2022-09-27T10:36:39;8.57;;;7.57;;
10651;SDS011;5374;42.742;23.266;2022-09-27T10:39:26;9.43;;;7.97;;
10651;SDS011;5374;42.742;23.266;2022-09-27T10:45:24;8.17;;;7.37;;
10651;SDS011;5374;42.742;23.266;2022-09-27T10:48:18;9.27;;;7.50;;
10651;SDS011;5374;42.742;23.266;2022-09-27T10:51:18;8.57;;;7.80;;
10651;SDS011;5374;42.742;23.266;2022-09-27T10:54:16;11.77;;;7.20;;
10651;SDS011;5374;42.742;23.266;2022-09-27T10:57:18;16.57;;;7.97;;
10651;SDS011;5374;42.742;23.266;2022-09-27T11:00:07;16.03;;;8.30;;
10651;SDS011;5374;42.742;23.266;2022-09-27T11:03:12;16.27;;;8.17;;
10651;SDS011;5374;42.742;23.266;2022-09-27T11:06:06;12.67;;;8.63;;
10651;SDS011;5374;42.742;23.266;2022-09-27T11:09:09;8.37;;;7.30;;
10651;SDS011;5374;42.742;23.266;2022-09-27T11:12:04;11.40;;;7.80;;
10651;SDS011;5374;42.742;23.266;2022-09-27T11:14:56;10.17;;;7.20;;
10651;SDS011;5374;42.742;23.266;2022-09-27T11:17:46;11.90;;;8.10;;
10651;SDS011;5374;42.742;23.266;2022-09-27T11:20:41;12.03;;;8.17;;
10651;SDS011;5374;42.742;23.266;2022-09-27T11:23:38;7.50;;;6.27;;
10651;SDS011;5374;42.742;23.266;2022-09-27T11:26:44;6.87;;;5.70;;
10651;SDS011;5374;42.742;23.266;2022-09-27T11:29:42;7.27;;;4.70;;
10651;SDS011;5374;42.742;23.266;2022-09-27T11:32:43;7.53;;;4.87;;
10651;SDS011;5374;42.742;23.266;2022-09-27T11:35:43;9.90;;;4.80;;
10651;SDS011;5374;42.742;23.266;2022-09-27T11:38:46;9.00;;;5.43;;
10651;SDS011;5374;42.742;23.266;2022-09-27T11:41:45;4.97;;;3.83;;
10651;SDS011;5374;42.742;23.266;2022-09-27T11:44:49;7.27;;;4.33;;
10651;SDS011;5374;42.742;23.266;2022-09-27T11:47:45;5.70;;;4.17;;
10651;SDS011;5374;42.742;23.266;2022-09-27T11:53:55;6.43;;;4.00;;
10651;SDS011;5374;42.742;23.266;2022-09-27T11:56:54;7.43;;;4.10;;
10651;SDS011;5374;42.742;23.266;2022-09-27T12:03:12;5.60;;;4.17;;
10651;SDS011;5374;42.742;23.266;2022-09-27T12:06:14;5.40;;;3.73;;
10651;SDS011;5374;42.742;23.266;2022-09-27T12:09:08;3.40;;;3.03;;
10651;SDS011;5374;42.742;23.266;2022-09-27T12:12:00;6.10;;;4.37;;
10651;SDS011;5374;42.742;23.266;2022-09-27T12:14:51;4.57;;;4.17;;
10651;SDS011;5374;42.742;23.266;2022-09-27T12:17:43;4.87;;;4.20;;
10651;SDS011;5374;42.742;23.266;2022-09-27T12:20:33;7.37;;;4.20;;
10651;SDS011;5374;42.742;23.266;2022-09-27T12:23:23;3.70;;;3.20;;
10651;SDS011;5374;42.742;23.266;2022-09-27T12:26:19;10.40;;;5.80;;
10651;SDS011;5374;42.742;23.266;2022-09-27T12:29:10;6.23;;;4.23;;
10651;SDS011;5374;42.742;23.266;2022-09-27T12:32:03;3.90;;;3.07;;
10651;SDS011;5374;42.742;23.266;2022-09-27T12:35:00;5.07;;;2.40;;
10651;SDS011;5374;42.742;23.266;2022-09-27T12:37:56;2.73;;;2.50;;
10651;SDS011;5374;42.742;23.266;2022-09-27T12:40:49;4.13;;;2.87;;
10651;SDS011;5374;42.742;23.266;2022-09-27T12:43:43;5.23;;;3.07;;
10651;SDS011;5374;42.742;23.266;2022-09-27T12:46:35;3.93;;;3.00;;
10651;SDS011;5374;42.742;23.266;2022-09-27T12:49:35;3.30;;;2.63;;
10651;SDS011;5374;42.742;23.266;2022-09-27T12:52:35;4.13;;;2.67;;
10651;SDS011;5374;42.742;23.266;2022-09-27T12:55:34;4.87;;;2.90;;
10651;SDS011;5374;42.742;23.266;2022-09-27T12:58:51;5.70;;;2.30;;
10651;SDS011;5374;42.742;23.266;2022-09-27T13:01:57;8.57;;;2.70;;
10651;SDS011;5374;42.742;23.266;2022-09-27T13:05:06;4.07;;;2.40;;
10651;SDS011;5374;42.742;23.266;2022-09-27T13:08:24;4.17;;;2.50;;
10651;SDS011;5374;42.742;23.266;2022-09-27T13:11:22;5.37;;;2.17;;
10651;SDS011;5374;42.742;23.266;2022-09-27T13:14:16;4.73;;;2.60;;
10651;SDS011;5374;42.742;23.266;2022-09-27T13:17:07;5.50;;;2.70;;
10651;SDS011;5374;42.742;23.266;2022-09-27T13:20:37;6.00;;;2.77;;
10651;SDS011;5374;42.742;23.266;2022-09-27T13:26:48;3.73;;;2.70;;
10651;SDS011;5374;42.742;23.266;2022-09-27T13:29:38;4.53;;;2.40;;
10651;SDS011;5374;42.742;23.266;2022-09-27T13:32:25;5.73;;;2.53;;
10651;SDS011;5374;42.742;23.266;2022-09-27T13:35:17;4.60;;;2.50;;
10651;SDS011;5374;42.742;23.266;2022-09-27T13:38:17;2.93;;;2.30;;
10651;SDS011;5374;42.742;23.266;2022-09-27T13:41:17;2.67;;;2.30;;
10651;SDS011;5374;42.742;23.266;2022-09-27T13:44:06;4.73;;;2.43;;
10651;SDS011;5374;42.742;23.266;2022-09-27T13:47:01;3.10;;;2.10;;
10651;SDS011;5374;42.742;23.266;2022-09-27T13:49:52;5.33;;;2.17;;
10651;SDS011;5374;42.742;23.266;2022-09-27T13:52:44;3.60;;;2.10;;
10651;SDS011;5374;42.742;23.266;2022-09-27T13:55:43;5.30;;;2.00;;
10651;SDS011;5374;42.742;23.266;2022-09-27T13:58:33;3.90;;;2.40;;
10651;SDS011;5374;42.742;23.266;2022-09-27T14:01:26;2.70;;;2.40;;
10651;SDS011;5374;42.742;23.266;2022-09-27T14:04:19;4.17;;;2.40;;
10651;SDS011;5374;42.742;23.266;2022-09-27T14:07:11;5.47;;;2.70;;
10651;SDS011;5374;42.742;23.266;2022-09-27T14:10:02;2.87;;;2.47;;
10651;SDS011;5374;42.742;23.266;2022-09-27T14:12:50;4.40;;;2.70;;
10651;SDS011;5374;42.742;23.266;2022-09-27T14:15:38;2.97;;;2.67;;
10651;SDS011;5374;42.742;23.266;2022-09-27T14:18:26;3.30;;;2.43;;
10651;SDS011;5374;42.742;23.266;2022-09-27T14:21:19;3.60;;;2.60;;
10651;SDS011;5374;42.742;23.266;2022-09-27T14:24:17;3.47;;;3.17;;
10651;SDS011;5374;42.742;23.266;2022-09-27T14:27:11;3.60;;;3.10;;
10651;SDS011;5374;42.742;23.266;2022-09-27T14:30:07;4.33;;;3.27;;
10651;SDS011;5374;42.742;23.266;2022-09-27T14:32:59;3.90;;;3.60;;
10651;SDS011;5374;42.742;23.266;2022-09-27T14:35:48;3.63;;;3.17;;
10651;SDS011;5374;42.742;23.266;2022-09-27T14:38:54;10.57;;;3.40;;
10651;SDS011;5374;42.742;23.266;2022-09-27T14:41:43;6.00;;;3.40;;
10651;SDS011;5374;42.742;23.266;2022-09-27T14:44:44;8.07;;;3.70;;
10651;SDS011;5374;42.742;23.266;2022-09-27T14:47:41;4.13;;;3.50;;
10651;SDS011;5374;42.742;23.266;2022-09-27T14:50:31;5.97;;;3.87;;
10651;SDS011;5374;42.742;23.266;2022-09-27T14:53:20;4.67;;;4.17;;
10651;SDS011;5374;42.742;23.266;2022-09-27T14:56:11;4.37;;;3.97;;
10651;SDS011;5374;42.742;23.266;2022-09-27T14:59:03;7.47;;;4.47;;
10651;SDS011;5374;42.742;23.266;2022-09-27T15:01:56;9.40;;;4.70;;
10651;SDS011;5374;42.742;23.266;2022-09-27T15:04:46;10.63;;;4.77;;
10651;SDS011;5374;42.742;23.266;2022-09-27T15:07:35;4.83;;;1.93;;
10651;SDS011;5374;42.742;23.266;2022-09-27T15:10:23;9.27;;;3.07;;
10651;SDS011;5374;42.742;23.266;2022-09-27T15:13:17;11.10;;;4.67;;
10651;SDS011;5374;42.742;23.266;2022-09-27T15:16:06;9.80;;;4.83;;
10651;SDS011;5374;42.742;23.266;2022-09-27T15:18:58;14.93;;;9.50;;
10651;SDS011;5374;42.742;23.266;2022-09-27T15:21:48;14.27;;;5.07;;
10651;SDS011;5374;42.742;23.266;2022-09-27T15:24:36;7.43;;;5.07;;
10651;SDS011;5374;42.742;23.266;2022-09-27T15:27:25;5.93;;;3.83;;
10651;SDS011;5374;42.742;23.266;2022-09-27T15:30:16;5.07;;;2.47;;
10651;SDS011;5374;42.742;23.266;2022-09-27T15:33:05;7.57;;;2.83;;
10651;SDS011;5374;42.742;23.266;2022-09-27T15:36:05;4.30;;;1.83;;
10651;SDS011;5374;42.742;23.266;2022-09-27T15:38:54;4.17;;;2.43;;
10651;SDS011;5374;42.742;23.266;2022-09-27T15:42:00;9.00;;;6.53;;
10651;SDS011;5374;42.742;23.266;2022-09-27T15:44:52;7.03;;;2.97;;
10651;SDS011;5374;42.742;23.266;2022-09-27T15:47:50;5.47;;;2.87;;
10651;SDS011;5374;42.742;23.266;2022-09-27T15:50:38;4.13;;;2.73;;
10651;SDS011;5374;42.742;23.266;2022-09-27T15:56:30;4.00;;;2.57;;
10651;SDS011;5374;42.742;23.266;2022-09-27T15:59:19;6.37;;;2.73;;
10651;SDS011;5374;42.742;23.266;2022-09-27T16:02:11;5.10;;;2.40;;
10651;SDS011;5374;42.742;23.266;2022-09-27T16:05:03;5.53;;;2.90;;
10651;SDS011;5374;42.742;23.266;2022-09-27T16:07:51;4.37;;;2.93;;
10651;SDS011;5374;42.742;23.266;2022-09-27T16:10:38;7.77;;;5.00;;
10651;SDS011;5374;42.742;23.266;2022-09-27T16:13:30;7.43;;;3.83;;
10651;SDS011;5374;42.742;23.266;2022-09-27T16:16:18;7.27;;;3.50;;
10651;SDS011;5374;42.742;23.266;2022-09-27T16:19:07;6.90;;;4.97;;
10651;SDS011;5374;42.742;23.266;2022-09-27T16:21:57;5.20;;;4.30;;
10651;SDS011;5374;42.742;23.266;2022-09-27T16:24:47;6.43;;;4.07;;
10651;SDS011;5374;42.742;23.266;2022-09-27T16:27:35;8.27;;;5.17;;
10651;SDS011;5374;42.742;23.266;2022-09-27T16:30:22;6.83;;;3.70;;
10651;SDS011;5374;42.742;23.266;2022-09-27T16:33:09;4.67;;;2.97;;
10651;SDS011;5374;42.742;23.266;2022-09-27T16:35:57;6.00;;;4.00;;
10651;SDS011;5374;42.742;23.266;2022-09-27T16:38:50;7.10;;;5.47;;
10651;SDS011;5374;42.742;23.266;2022-09-27T16:41:37;8.97;;;6.87;;
10651;SDS011;5374;42.742;23.266;2022-09-27T16:44:26;12.00;;;8.23;;
10651;SDS011;5374;42.742;23.266;2022-09-27T16:47:15;11.27;;;8.80;;
10651;SDS011;5374;42.742;23.266;2022-09-27T16:50:05;11.40;;;6.97;;
10651;SDS011;5374;42.742;23.266;2022-09-27T16:53:10;10.03;;;8.07;;
10651;SDS011;5374;42.742;23.266;2022-09-27T16:56:00;11.50;;;8.67;;
10651;SDS011;5374;42.742;23.266;2022-09-27T16:58:47;11.47;;;9.23;;
10651;SDS011;5374;42.742;23.266;2022-09-27T17:01:35;14.30;;;12.43;;
10651;SDS011;5374;42.742;23.266;2022-09-27T17:04:22;16.50;;;12.70;;
10651;SDS011;5374;42.742;23.266;2022-09-27T17:07:10;12.30;;;10.97;;
10651;SDS011;5374;42.742;23.266;2022-09-27T17:09:58;15.67;;;12.97;;
10651;SDS011;5374;42.742;23.266;2022-09-27T17:12:48;17.23;;;14.43;;
10651;SDS011;5374;42.742;23.266;2022-09-27T17:15:35;13.70;;;11.73;;
10651;SDS011;5374;42.742;23.266;2022-09-27T17:18:23;10.67;;;7.83;;
10651;SDS011;5374;42.742;23.266;2022-09-27T17:21:10;10.67;;;8.03;;
10651;SDS011;5374;42.742;23.266;2022-09-27T17:23:57;13.07;;;8.80;;
10651;SDS011;5374;42.742;23.266;2022-09-27T17:26:45;9.70;;;8.27;;
10651;SDS011;5374;42.742;23.266;2022-09-27T17:29:34;9.17;;;7.00;;
10651;SDS011;5374;42.742;23.266;2022-09-27T17:32:22;31.93;;;16.10;;